createdAt,value
2022-10-05T00:01:24.410Z,100.00
2022-10-05T00:04:01.320Z,100.00
2022-10-05T00:06:32.574Z,100.00
2022-10-05T00:09:03.633Z,100.00
2022-10-05T00:11:35.517Z,100.00
2022-10-05T00:14:09.124Z,100.00
2022-10-05T00:16:41.624Z,100.00
2022-10-05T00:19:20.502Z,100.00
2022-10-05T00:21:50.842Z,100.00
2022-10-05T00:24:22.282Z,100.00
2022-10-05T00:26:57.812Z,100.00
2022-10-05T00:29:28.394Z,100.00
2022-10-05T00:31:58.770Z,100.00
2022-10-05T00:34:28.864Z,100.00
2022-10-05T00:36:59.991Z,100.00
2022-10-05T00:39:30.372Z,100.00
2022-10-05T00:42:23.134Z,100.00
2022-10-05T00:44:58.405Z,100.00
2022-10-05T00:47:43.764Z,100.00
2022-10-05T00:50:49.032Z,100.00
2022-10-05T00:53:32.697Z,100.00
2022-10-05T00:56:11.075Z,100.00
2022-10-05T00:58:56.952Z,100.00
2022-10-05T01:01:34.585Z,100.00
2022-10-05T01:04:13.102Z,100.00
2022-10-05T01:06:53.404Z,100.00
2022-10-05T01:09:39.322Z,100.00
2022-10-05T01:12:21.402Z,100.00
2022-10-05T01:15:01.571Z,100.00
2022-10-05T01:17:43.331Z,100.00
2022-10-05T01:20:45.063Z,100.00
2022-10-05T01:23:47.584Z,100.00
2022-10-05T01:26:33.175Z,100.00
2022-10-05T01:29:11.852Z,100.00
2022-10-05T01:31:50.103Z,100.00
2022-10-05T01:34:28.837Z,100.00
2022-10-05T01:37:08.471Z,100.00
2022-10-05T01:39:47.203Z,100.00
2022-10-05T01:42:29.924Z,100.00
2022-10-05T01:45:10.342Z,100.00
2022-10-05T01:47:47.353Z,100.00
2022-10-05T01:50:29.146Z,100.00
2022-10-05T01:53:07.723Z,100.00
2022-10-05T01:55:43.553Z,100.00
2022-10-05T01:58:22.112Z,100.00
2022-10-05T02:01:02.040Z,100.00
2022-10-05T02:03:40.291Z,100.00
2022-10-05T02:06:16.776Z,100.00
2022-10-05T02:08:54.242Z,100.00
2022-10-05T02:11:24.373Z,100.00
2022-10-05T02:14:00.325Z,100.00
2022-10-05T02:16:44.351Z,100.00
2022-10-05T02:19:20.520Z,100.00
2022-10-05T02:21:55.171Z,100.00
2022-10-05T02:24:40.121Z,100.00
2022-10-05T02:27:12.542Z,100.00
2022-10-05T02:29:50.663Z,100.00
2022-10-05T02:32:25.665Z,100.00
2022-10-05T02:35:03.545Z,100.00
2022-10-05T02:37:45.074Z,100.00
2022-10-05T02:40:25.264Z,100.00
2022-10-05T02:43:08.674Z,100.00
2022-10-05T02:45:51.807Z,100.00
2022-10-05T02:48:32.954Z,100.00
2022-10-05T02:51:12.302Z,100.00
2022-10-05T02:53:56.923Z,100.00
2022-10-05T02:56:38.344Z,100.00
2022-10-05T02:59:15.253Z,100.00
2022-10-05T03:01:51.983Z,100.00
2022-10-05T03:04:39.187Z,100.00
2022-10-05T03:07:17.093Z,100.00
2022-10-05T03:10:01.126Z,100.00
2022-10-05T03:12:50.983Z,100.00
2022-10-05T03:15:41.242Z,100.00
2022-10-05T03:18:21.554Z,100.00
2022-10-05T03:21:02.983Z,100.00
2022-10-05T03:23:45.842Z,100.00
2022-10-05T03:26:37.322Z,100.00
2022-10-05T03:29:21.893Z,100.00
2022-10-05T03:32:00.124Z,100.00
2022-10-05T03:34:44.683Z,100.00
2022-10-05T03:37:24.105Z,100.00
2022-10-05T03:40:02.066Z,100.00
2022-10-05T03:42:39.960Z,100.00
2022-10-05T03:45:35.103Z,100.00
2022-10-05T03:48:10.243Z,100.00
2022-10-05T03:50:49.075Z,100.00
2022-10-05T03:53:23.772Z,100.00
2022-10-05T03:56:00.373Z,100.00
2022-10-05T03:58:40.961Z,100.00
2022-10-05T04:01:16.314Z,100.00
2022-10-05T04:03:49.871Z,100.00
2022-10-05T04:06:25.697Z,100.00
2022-10-05T04:09:03.931Z,100.00
2022-10-05T04:11:41.361Z,100.00
2022-10-05T04:14:16.672Z,100.00
2022-10-05T04:16:50.074Z,100.00
2022-10-05T04:19:24.652Z,100.00
2022-10-05T04:22:06.177Z,100.00
2022-10-05T04:24:43.584Z,100.00
2022-10-05T04:27:17.942Z,100.00
2022-10-05T04:29:55.657Z,100.00
2022-10-05T04:32:37.713Z,100.00
2022-10-05T04:35:31.655Z,100.00
2022-10-05T04:38:17.584Z,100.00
2022-10-05T04:41:09.793Z,100.00
2022-10-05T04:43:51.384Z,100.00
2022-10-05T04:46:37.010Z,100.00
2022-10-05T04:49:37.955Z,100.00
2022-10-05T04:52:19.531Z,100.00
2022-10-05T04:55:04.295Z,100.00
2022-10-05T04:57:43.502Z,100.00
2022-10-05T05:00:25.441Z,100.00
2022-10-05T05:03:21.928Z,100.00
2022-10-05T05:06:17.940Z,100.00
2022-10-05T05:09:15.234Z,100.00
2022-10-05T05:12:04.184Z,100.00
2022-10-05T05:17:57.424Z,100.00
2022-10-05T05:20:40.429Z,100.00
2022-10-05T05:23:21.943Z,100.00
2022-10-05T05:26:08.895Z,100.00
2022-10-05T05:28:55.592Z,100.00
2022-10-05T05:31:38.438Z,100.00
2022-10-05T05:34:22.783Z,100.00
2022-10-05T05:37:02.761Z,100.00
2022-10-05T05:39:50.073Z,100.00
2022-10-05T05:42:37.243Z,100.00
2022-10-05T05:45:17.978Z,100.00
2022-10-05T05:47:54.587Z,100.00
2022-10-05T05:50:43.407Z,100.00
2022-10-05T05:53:20.605Z,100.00
2022-10-05T05:55:56.623Z,100.00
2022-10-05T05:58:34.241Z,100.00
2022-10-05T06:01:30.658Z,100.00
2022-10-05T06:04:09.005Z,100.00
2022-10-05T06:06:46.341Z,100.00
2022-10-05T06:09:24.626Z,100.00
2022-10-05T06:12:12.423Z,100.00
2022-10-05T06:14:48.805Z,100.00
2022-10-05T06:17:26.611Z,100.00
2022-10-05T06:20:04.686Z,100.00
2022-10-05T06:22:42.483Z,100.00
2022-10-05T06:25:26.952Z,100.00
2022-10-05T06:28:11.041Z,100.00
2022-10-05T06:31:14.665Z,100.00
2022-10-05T06:33:52.933Z,100.00
2022-10-05T06:36:42.592Z,100.00
2022-10-05T06:39:44.764Z,100.00
2022-10-05T06:42:45.803Z,100.00
2022-10-05T06:45:45.805Z,100.00
2022-10-05T06:49:04.564Z,100.00
2022-10-05T06:52:05.628Z,100.00
2022-10-05T06:54:54.097Z,100.00
2022-10-05T06:57:47.377Z,100.00
2022-10-05T07:00:22.006Z,100.00
2022-10-05T07:02:59.811Z,100.00
2022-10-05T07:05:46.997Z,100.00
2022-10-05T07:08:26.056Z,100.00
2022-10-05T07:14:11.854Z,100.00
2022-10-05T07:17:01.870Z,100.00
2022-10-05T07:19:43.353Z,100.00
2022-10-05T07:22:43.785Z,100.00
2022-10-05T07:25:22.361Z,100.00
2022-10-05T07:27:59.555Z,100.00
2022-10-05T07:30:33.717Z,100.00
2022-10-05T07:33:14.689Z,100.00
2022-10-05T07:36:09.973Z,100.00
2022-10-05T07:38:46.739Z,100.00
2022-10-05T07:41:24.390Z,100.00
2022-10-05T07:44:03.161Z,100.00
2022-10-05T07:46:57.079Z,100.00
2022-10-05T07:49:43.125Z,100.00
2022-10-05T07:52:18.675Z,100.00
2022-10-05T07:54:58.934Z,100.00
2022-10-05T07:57:41.367Z,100.00
2022-10-05T08:00:20.812Z,100.00
2022-10-05T08:02:58.622Z,100.00
2022-10-05T08:05:33.216Z,100.00
2022-10-05T08:08:16.687Z,100.00
2022-10-05T08:10:56.869Z,100.00
2022-10-05T08:13:35.385Z,100.00
2022-10-05T08:16:12.920Z,100.00
2022-10-05T08:18:57.138Z,100.00
2022-10-05T08:21:33.765Z,100.00
2022-10-05T08:24:14.882Z,100.00
2022-10-05T08:26:53.592Z,100.00
2022-10-05T08:29:29.058Z,100.00
2022-10-05T08:32:03.693Z,100.00
2022-10-05T08:34:43.125Z,100.00
2022-10-05T08:37:19.055Z,100.00
2022-10-05T08:39:56.806Z,100.00
2022-10-05T08:43:03.338Z,100.00
2022-10-05T08:46:04.451Z,100.00
2022-10-05T08:49:06.112Z,100.00
2022-10-05T08:52:01.072Z,100.00
2022-10-05T08:55:05.132Z,100.00
2022-10-05T08:58:20.834Z,100.00
2022-10-05T09:01:01.315Z,100.00
2022-10-05T09:04:08.625Z,100.00
2022-10-05T09:07:15.280Z,100.00
2022-10-05T09:10:29.195Z,100.00
2022-10-05T09:13:21.114Z,100.00
2022-10-05T09:16:15.504Z,100.00
2022-10-05T09:19:13.094Z,100.00
2022-10-05T09:21:45.059Z,100.00
2022-10-05T09:24:29.006Z,100.00
2022-10-05T09:27:11.821Z,100.00
2022-10-05T09:30:14.616Z,100.00
2022-10-05T09:33:13.773Z,100.00
2022-10-05T09:36:14.112Z,100.00
2022-10-05T09:39:20.585Z,100.00
2022-10-05T09:42:11.279Z,100.00
2022-10-05T09:45:12.120Z,100.00
2022-10-05T09:48:02.821Z,100.00
2022-10-05T09:51:08.086Z,100.00
2022-10-05T09:54:22.771Z,100.00
2022-10-05T09:57:42.782Z,100.00
2022-10-05T10:00:29.893Z,100.00
2022-10-05T10:03:27.899Z,100.00
2022-10-05T10:06:29.662Z,99.85
2022-10-05T10:09:25.532Z,100.00
2022-10-05T10:12:31.876Z,98.53
2022-10-05T10:15:40.484Z,98.75
2022-10-05T10:18:42.665Z,99.21
2022-10-05T10:21:38.352Z,98.24
2022-10-05T10:24:23.312Z,98.70
2022-10-05T10:27:35.307Z,96.91
2022-10-05T10:30:38.901Z,97.69
2022-10-05T10:33:37.701Z,99.13
2022-10-05T10:36:15.722Z,96.79
2022-10-05T10:39:00.334Z,95.71
2022-10-05T10:42:00.100Z,95.38
2022-10-05T10:45:06.774Z,94.65
2022-10-05T10:47:48.435Z,92.38
2022-10-05T10:50:45.406Z,91.97
2022-10-05T10:53:31.235Z,91.29
2022-10-05T10:56:30.693Z,92.48
2022-10-05T10:59:53.252Z,89.64
2022-10-05T11:02:53.395Z,91.05
2022-10-05T11:05:55.258Z,91.18
2022-10-05T11:09:02.000Z,90.91
2022-10-05T11:12:10.054Z,90.41
2022-10-05T11:15:18.765Z,90.58
2022-10-05T11:18:07.304Z,90.04
2022-10-05T11:21:16.132Z,90.36
2022-10-05T11:24:27.862Z,89.40
2022-10-05T11:30:41.013Z,88.59
2022-10-05T11:33:39.244Z,89.43
2022-10-05T11:36:42.583Z,87.93
2022-10-05T11:39:39.094Z,88.29
2022-10-05T11:42:40.215Z,89.03
2022-10-05T11:45:38.494Z,90.45
2022-10-05T11:48:44.445Z,88.88
2022-10-05T11:51:47.462Z,89.35
2022-10-05T11:55:09.806Z,90.27
2022-10-05T11:57:50.199Z,89.62
2022-10-05T12:00:22.519Z,89.97
2022-10-05T12:03:24.881Z,90.93
2022-10-05T12:06:08.741Z,90.49
2022-10-05T12:08:50.425Z,89.67
2022-10-05T12:11:48.324Z,89.79
2022-10-05T12:14:33.833Z,88.54
2022-10-05T12:17:12.222Z,88.81
2022-10-05T12:19:47.354Z,90.03
2022-10-05T12:22:23.113Z,90.58
2022-10-05T12:25:04.971Z,90.57
2022-10-05T12:27:40.865Z,89.78
2022-10-05T12:30:19.896Z,89.16
2022-10-05T12:33:02.433Z,89.57
2022-10-05T12:35:48.483Z,89.29
2022-10-05T12:38:28.745Z,89.86
2022-10-05T12:41:09.354Z,88.65
2022-10-05T12:43:54.929Z,87.48
2022-10-05T12:46:35.625Z,88.91
2022-10-05T12:49:36.642Z,88.79
2022-10-05T12:52:15.494Z,89.42
2022-10-05T12:54:53.234Z,85.51
2022-10-05T12:57:29.240Z,86.23
2022-10-05T13:00:08.142Z,86.52
2022-10-05T13:02:46.205Z,83.94
2022-10-05T13:05:25.092Z,82.61
2022-10-05T13:08:10.342Z,83.39
2022-10-05T13:10:46.468Z,82.78
2022-10-05T13:13:47.344Z,84.42
2022-10-05T13:16:27.166Z,81.04
2022-10-05T13:19:15.492Z,81.00
2022-10-05T13:22:11.335Z,84.00
2022-10-05T13:24:50.019Z,83.86
2022-10-05T13:27:25.413Z,84.47
2022-10-05T13:30:00.824Z,84.61
2022-10-05T13:32:37.364Z,85.68
2022-10-05T13:35:25.862Z,84.92
2022-10-05T13:38:04.753Z,87.12
2022-10-05T13:40:40.156Z,85.70
2022-10-05T13:43:20.493Z,85.06
2022-10-05T13:45:57.141Z,84.15
2022-10-05T13:48:50.421Z,86.10
2022-10-05T13:51:26.126Z,85.46
2022-10-05T13:54:05.150Z,84.96
2022-10-05T13:56:39.183Z,85.83
2022-10-05T13:59:20.236Z,86.21
2022-10-05T14:01:59.934Z,87.09
2022-10-05T14:04:32.725Z,87.13
2022-10-05T14:07:23.697Z,87.78
2022-10-05T14:09:54.078Z,88.58
2022-10-05T14:12:24.853Z,87.51
2022-10-05T14:14:57.245Z,88.34
2022-10-05T14:17:41.520Z,87.92
2022-10-05T14:20:26.356Z,88.47
2022-10-05T14:23:01.633Z,89.28
2022-10-05T14:25:32.849Z,89.25
2022-10-05T14:28:06.982Z,90.36
2022-10-05T14:30:40.028Z,90.41
2022-10-05T14:33:18.484Z,91.86
2022-10-05T14:35:52.625Z,91.80
2022-10-05T14:38:26.954Z,92.61
2022-10-05T14:41:19.058Z,94.38
2022-10-05T14:43:57.047Z,95.09
2022-10-05T14:46:32.909Z,95.56
2022-10-05T14:49:22.626Z,95.93
2022-10-05T14:51:54.044Z,97.12
2022-10-05T14:54:41.759Z,97.46
2022-10-05T14:57:25.620Z,97.06
2022-10-05T15:00:12.712Z,98.97
2022-10-05T15:03:16.077Z,98.84
2022-10-05T15:05:50.799Z,99.27
2022-10-05T15:09:17.981Z,100.00
2022-10-05T15:11:53.135Z,100.00
2022-10-05T15:14:34.814Z,100.00
2022-10-05T15:17:20.680Z,100.00
2022-10-05T15:20:00.041Z,100.00
2022-10-05T15:22:40.864Z,100.00
2022-10-05T15:25:18.832Z,100.00
2022-10-05T15:28:10.691Z,100.00
2022-10-05T15:30:48.311Z,100.00
2022-10-05T15:33:27.945Z,100.00
2022-10-05T15:36:08.573Z,100.00
2022-10-05T15:38:50.755Z,100.00
2022-10-05T15:41:26.064Z,100.00
2022-10-05T15:44:09.781Z,100.00
2022-10-05T15:46:52.152Z,100.00
2022-10-05T15:49:33.608Z,100.00
2022-10-05T15:52:18.104Z,100.00
2022-10-05T15:55:24.578Z,100.00
2022-10-05T15:58:13.743Z,100.00
2022-10-05T16:00:50.421Z,100.00
2022-10-05T16:03:29.656Z,100.00
2022-10-05T16:06:25.123Z,100.00
2022-10-05T16:09:10.771Z,100.00
2022-10-05T16:12:08.912Z,100.00
2022-10-05T16:14:57.075Z,100.00
2022-10-05T16:17:36.914Z,100.00
2022-10-05T16:20:24.914Z,100.00
2022-10-05T16:23:06.129Z,100.00
2022-10-05T16:25:50.075Z,100.00
2022-10-05T16:28:31.941Z,100.00
2022-10-05T16:31:10.227Z,100.00
2022-10-05T16:33:56.969Z,100.00
2022-10-05T16:36:42.245Z,100.00
2022-10-05T16:39:22.181Z,100.00
2022-10-05T16:42:04.201Z,100.00
2022-10-05T16:44:45.861Z,100.00
2022-10-05T16:47:36.465Z,100.00
2022-10-05T16:50:21.253Z,100.00
2022-10-05T16:52:59.943Z,100.00
2022-10-05T16:55:38.141Z,100.00
2022-10-05T16:58:17.622Z,100.00
2022-10-05T17:01:07.343Z,100.00
2022-10-05T17:03:52.831Z,100.00
2022-10-05T17:06:58.363Z,100.00
2022-10-05T17:09:52.836Z,100.00
2022-10-05T17:12:40.838Z,100.00
2022-10-05T17:15:31.901Z,100.00
2022-10-05T17:18:32.415Z,100.00
2022-10-05T17:21:14.082Z,100.00
2022-10-05T17:23:56.571Z,100.00
2022-10-05T17:26:59.876Z,100.00
2022-10-05T17:29:43.452Z,100.00
2022-10-05T17:32:30.432Z,100.00
2022-10-05T17:35:20.724Z,100.00
2022-10-05T17:38:14.701Z,100.00
2022-10-05T17:41:11.124Z,100.00
2022-10-05T17:44:06.443Z,100.00
2022-10-05T17:46:40.635Z,100.00
2022-10-05T17:50:11.419Z,100.00
2022-10-05T17:53:02.212Z,100.00
2022-10-05T17:56:07.371Z,100.00
2022-10-05T17:59:04.566Z,100.00
2022-10-05T18:01:38.444Z,100.00
2022-10-05T18:04:40.442Z,100.00
2022-10-05T18:07:27.004Z,100.00
2022-10-05T18:10:18.276Z,100.00
2022-10-05T18:12:51.133Z,100.00
2022-10-05T18:15:51.970Z,100.00
2022-10-05T18:18:56.893Z,100.00
2022-10-05T18:21:38.032Z,100.00
2022-10-05T18:24:30.841Z,100.00
2022-10-05T18:27:34.540Z,100.00
2022-10-05T18:30:18.666Z,100.00
2022-10-05T18:33:43.453Z,100.00
2022-10-05T18:36:50.649Z,100.00
2022-10-05T18:39:41.951Z,100.00
2022-10-05T18:42:23.222Z,100.00
2022-10-05T18:44:59.183Z,100.00
2022-10-05T18:47:38.602Z,100.00
2022-10-05T18:50:25.066Z,100.00
2022-10-05T18:53:09.754Z,100.00
2022-10-05T18:55:46.597Z,100.00
2022-10-05T18:58:27.352Z,100.00
2022-10-05T19:01:15.382Z,100.00
2022-10-05T19:04:09.919Z,100.00
2022-10-05T19:06:53.474Z,100.00
2022-10-05T19:09:38.928Z,100.00
2022-10-05T19:12:20.042Z,100.00
2022-10-05T19:15:01.022Z,100.00
2022-10-05T19:17:47.532Z,100.00
2022-10-05T19:20:29.434Z,100.00
2022-10-05T19:23:15.904Z,100.00
2022-10-05T19:25:55.195Z,100.00
2022-10-05T19:28:31.400Z,100.00
2022-10-05T19:31:13.332Z,100.00
2022-10-05T19:33:59.800Z,100.00
2022-10-05T19:36:46.835Z,100.00
2022-10-05T19:39:30.373Z,100.00
2022-10-05T19:42:17.960Z,100.00
2022-10-05T19:45:00.364Z,100.00
2022-10-05T19:47:43.724Z,100.00
2022-10-05T19:50:31.433Z,100.00
2022-10-05T19:53:12.971Z,100.00
2022-10-05T19:55:45.954Z,100.00
2022-10-05T19:58:22.592Z,100.00
2022-10-05T20:01:07.812Z,100.00
2022-10-05T20:03:44.513Z,100.00
2022-10-05T20:06:27.582Z,100.00
2022-10-05T20:09:19.536Z,100.00
2022-10-05T20:11:55.732Z,100.00
2022-10-05T20:14:59.381Z,100.00
2022-10-05T20:17:50.492Z,100.00
2022-10-05T20:20:37.442Z,100.00
2022-10-05T20:23:28.243Z,100.00
2022-10-05T20:26:16.834Z,100.00
2022-10-05T20:28:52.964Z,100.00
2022-10-05T20:31:23.399Z,100.00
2022-10-05T20:33:53.424Z,100.00
2022-10-05T20:36:23.784Z,100.00
2022-10-05T20:38:53.752Z,100.00
2022-10-05T20:41:23.823Z,100.00
2022-10-05T20:43:56.023Z,100.00
2022-10-05T20:46:26.487Z,100.00
2022-10-05T20:48:56.453Z,100.00
2022-10-05T20:51:29.173Z,100.00
2022-10-05T20:53:59.384Z,100.00
2022-10-05T20:56:29.962Z,100.00
2022-10-05T20:59:01.683Z,100.00
2022-10-05T21:01:32.224Z,100.00
2022-10-05T21:04:03.734Z,100.00
2022-10-05T21:06:33.647Z,100.00
2022-10-05T21:09:03.857Z,100.00
2022-10-05T21:11:33.832Z,100.00
2022-10-05T21:14:05.907Z,100.00
2022-10-05T21:16:38.378Z,100.00
2022-10-05T21:19:09.774Z,100.00
2022-10-05T21:21:41.324Z,100.00
2022-10-05T21:24:14.034Z,100.00
2022-10-05T21:26:44.603Z,100.00
2022-10-05T21:29:16.519Z,100.00
2022-10-05T21:31:46.546Z,100.00
2022-10-05T21:34:16.782Z,100.00
2022-10-05T21:36:46.764Z,100.00
2022-10-05T21:39:17.191Z,100.00
2022-10-05T21:41:49.613Z,100.00
2022-10-05T21:44:21.424Z,100.00
2022-10-05T21:46:51.776Z,100.00
2022-10-05T21:49:22.044Z,100.00
2022-10-05T21:51:52.043Z,100.00
2022-10-05T21:54:24.283Z,100.00
2022-10-05T21:56:56.938Z,100.00
2022-10-05T21:59:32.833Z,100.00
2022-10-05T22:02:02.884Z,100.00
2022-10-05T22:04:33.143Z,100.00
2022-10-05T22:07:03.124Z,100.00
2022-10-05T22:09:33.225Z,100.00
2022-10-05T22:12:03.163Z,100.00
2022-10-05T22:14:34.525Z,100.00
2022-10-05T22:17:04.989Z,100.00
2022-10-05T22:19:34.957Z,100.00
2022-10-05T22:22:08.624Z,100.00
2022-10-05T22:24:41.007Z,100.00
2022-10-05T22:27:11.373Z,100.00
2022-10-05T22:29:43.004Z,100.00
2022-10-05T22:32:13.244Z,100.00
2022-10-05T22:34:43.134Z,100.00
2022-10-05T22:37:14.132Z,100.00
2022-10-05T22:39:45.082Z,100.00
2022-10-05T22:42:15.014Z,100.00
2022-10-05T22:44:46.584Z,100.00
2022-10-05T22:47:16.565Z,100.00
2022-10-05T22:49:46.679Z,100.00
2022-10-05T22:52:16.576Z,100.00
2022-10-05T22:54:46.795Z,100.00
2022-10-05T22:57:16.923Z,100.00
2022-10-05T22:59:48.264Z,100.00
2022-10-05T23:02:18.989Z,100.00
2022-10-05T23:04:49.014Z,100.00
2022-10-05T23:07:19.205Z,100.00
2022-10-05T23:09:49.075Z,100.00
2022-10-05T23:12:19.003Z,100.00
2022-10-05T23:14:50.643Z,100.00
2022-10-05T23:17:22.674Z,100.00
2022-10-05T23:19:52.835Z,100.00
2022-10-05T23:22:23.963Z,100.00
2022-10-05T23:24:54.412Z,100.00
2022-10-05T23:27:24.464Z,100.00
2022-10-05T23:29:55.852Z,100.00
2022-10-05T23:32:26.224Z,100.00
2022-10-05T23:34:56.115Z,100.00
2022-10-05T23:37:28.294Z,100.00
2022-10-05T23:39:58.505Z,100.00
2022-10-05T23:42:28.492Z,100.00
2022-10-05T23:44:59.854Z,100.00
2022-10-05T23:47:29.693Z,100.00
2022-10-05T23:49:59.604Z,100.00
2022-10-05T23:52:29.923Z,100.00
2022-10-05T23:55:00.044Z,100.00
2022-10-05T23:57:30.103Z,100.00
